Chesapeake, VA

9:13 AM EST on February 13, 2016 (GMT -0500)
Carriage House Estates | | Change Station
CLOSE
Current Station
Personal Weather Station
Location: Chesapeake, VA
Elevation: 18 ft
Nearby Weather Stations

Elev 18 ft 36.68 °N, 76.19 °W | Updated 60 seconds ago

Clear
Clear
28.8 °F
Feels Like 20 °F
N
10.0
Wind Variable Wind from WNW
Gusts 11.0 mph

Today
High -- | Low -- °F
--% Chance of Precip.
Yesterday
High -- | Low -- °F
Precip. -- in
Pressure 30.21 in
Visibility 10.0 miles
Clouds Clear
Windchill 20 °F
Dew Point 11 °F
Humidity 47%
Rainfall 0.00 in
Snow Depth Not available.
6:55 AM 5:42 PM
Waxing Crescent, 31% visible
METAR KNFE 131356Z AUTO 34015G22KT 10SM CLR 00/M15 A3020 RMK AO2 PK WND 33026/1301 SLP229 T00001150
Pressure 30.21 in
Visibility 10.0 miles
Clouds Clear
Windchill 20 °F
Dew Point 11 °F
Humidity 47%
Rainfall 0.00 in
Snow Depth Not available.
6:55 AM 5:42 PM
Waxing Crescent, 31% visible
METAR KNFE 131356Z AUTO 34015G22KT 10SM CLR 00/M15 A3020 RMK AO2 PK WND 33026/1301 SLP229 T00001150

10-Day Weather Forecast

Almanac

Astronomy

Feb. 13, 2016 Rise Set
Actual Time
Civil Twilight
Nautical Twilight
Astronomical Twilight
Moon
Length of Visible Light
Length of Day
Tomorrow will be .
, % of the Moon is Illuminated

Today's Extremes

State Highs State Lows

Community

WunderPhotos

Upload Photos

1,892,558 photos uploaded!

WunderBlog® & News

Nearby

Air Quality

  Air Quality AQ Index Pollutant
Not available.

Snow Depth

Station Depth Elevation

Earthquake Activity

City Distance Mag. Time & Date
Minimum magnitude displayed is 2.5.

Coastal Water Temperatures

Place Temperature

Stations

Nearby Weather Stations

Station Location Temp. Windchill Dew Point Humidity Wind Precip. Elev Updated Type
                   

Watches & Warnings

There are currently no watches in effect.